createdAt,value
2017-08-06T00:02:00.652Z,100836.30
2017-08-06T00:04:30.965Z,100837.50
2017-08-06T00:07:00.240Z,100833.04
2017-08-06T00:09:31.029Z,100829.41
2017-08-06T00:12:00.269Z,100839.00
2017-08-06T00:14:29.629Z,100844.97
2017-08-06T00:16:58.882Z,100843.67
2017-08-06T00:19:28.166Z,100849.89
2017-08-06T00:22:00.400Z,100849.13
2017-08-06T00:24:29.777Z,100852.00
2017-08-06T00:26:59.250Z,100859.07
2017-08-06T00:29:28.528Z,100866.80
2017-08-06T00:31:57.763Z,100866.73
2017-08-06T00:34:26.893Z,100872.62
2017-08-06T00:36:56.160Z,100869.97
2017-08-06T00:39:28.289Z,100877.77
2017-08-06T00:41:59.085Z,100870.92
2017-08-06T00:44:28.219Z,100880.70
2017-08-06T00:46:57.737Z,100882.02
2017-08-06T00:49:26.965Z,100883.39
2017-08-06T00:51:56.475Z,100877.78
2017-08-06T00:54:26.610Z,100883.16
2017-08-06T00:56:56.147Z,100884.45
2017-08-06T00:59:25.389Z,100887.84
2017-08-06T01:01:54.642Z,100893.09
2017-08-06T01:04:25.739Z,100892.16
2017-08-06T01:06:55.001Z,100895.64
2017-08-06T01:09:24.443Z,100898.08
2017-08-06T01:11:53.653Z,100903.27
2017-08-06T01:14:23.653Z,100900.39
2017-08-06T01:16:53.601Z,100902.85
2017-08-06T01:19:25.505Z,100903.99
2017-08-06T01:21:56.382Z,100913.09
2017-08-06T01:24:26.523Z,100898.78
2017-08-06T01:26:57.429Z,100913.36
2017-08-06T01:29:26.679Z,100912.50
2017-08-06T01:31:55.972Z,100908.00
2017-08-06T01:34:25.217Z,100907.14
2017-08-06T01:36:55.441Z,100916.98
2017-08-06T01:39:25.017Z,100919.45
2017-08-06T01:41:56.400Z,100919.23
2017-08-06T01:44:27.461Z,100921.42
2017-08-06T01:46:58.738Z,100916.06
2017-08-06T01:49:28.711Z,100914.92
2017-08-06T01:52:00.205Z,100919.37
2017-08-06T01:54:29.473Z,100915.52
2017-08-06T01:56:59.260Z,100923.06
2017-08-06T01:59:28.505Z,100925.12
2017-08-06T02:01:57.843Z,100930.95
2017-08-06T02:04:26.985Z,100928.64
2017-08-06T02:06:57.392Z,100932.62
2017-08-06T02:09:26.646Z,100940.11
2017-08-06T02:11:55.911Z,100938.98
2017-08-06T02:14:25.166Z,100938.75
2017-08-06T02:16:54.392Z,100936.77
2017-08-06T02:19:25.943Z,100936.78
2017-08-06T02:21:55.647Z,100940.02
2017-08-06T02:24:24.870Z,100946.91
2017-08-06T02:26:54.154Z,100944.77
2017-08-06T02:29:23.423Z,100947.38
2017-08-06T02:31:52.912Z,100946.88
2017-08-06T02:34:24.112Z,100948.23
2017-08-06T02:36:53.529Z,100954.77
2017-08-06T02:39:24.644Z,100958.94
2017-08-06T02:41:53.926Z,100956.84
2017-08-06T02:44:23.829Z,100954.14
2017-08-06T02:46:56.172Z,100968.38
2017-08-06T02:49:25.407Z,100967.42
2017-08-06T02:51:54.762Z,100968.25
2017-08-06T02:54:24.035Z,100975.19
2017-08-06T02:56:53.311Z,100976.92
2017-08-06T02:59:22.597Z,100977.49
2017-08-06T03:01:51.920Z,100980.66
2017-08-06T03:04:23.008Z,100978.48
2017-08-06T03:06:52.296Z,100982.02
2017-08-06T03:09:21.548Z,100982.84
2017-08-06T03:11:50.882Z,100975.28
2017-08-06T03:14:22.251Z,100983.58
2017-08-06T03:16:51.800Z,100982.07
2017-08-06T03:19:21.190Z,100984.47
2017-08-06T03:21:50.443Z,100987.86
2017-08-06T03:24:19.745Z,100995.25
2017-08-06T03:26:49.065Z,100986.98
2017-08-06T03:29:18.891Z,100997.91
2017-08-06T03:31:48.167Z,100999.67
2017-08-06T03:34:17.413Z,100999.73
2017-08-06T03:36:49.113Z,100999.03
2017-08-06T03:39:18.427Z,101011.31
2017-08-06T03:41:47.671Z,101005.86
2017-08-06T03:44:18.318Z,100995.41
2017-08-06T03:46:50.090Z,101000.63
2017-08-06T03:49:21.198Z,101006.09
2017-08-06T03:51:50.538Z,101006.34
2017-08-06T03:54:21.309Z,101007.88
2017-08-06T03:56:51.290Z,101009.80
2017-08-06T03:59:20.604Z,101013.73
2017-08-06T04:01:49.910Z,101009.87
2017-08-06T04:04:19.185Z,101009.48
2017-08-06T04:06:48.498Z,101011.41
2017-08-06T04:09:17.974Z,101018.80
2017-08-06T04:11:49.871Z,101021.59
2017-08-06T04:14:19.115Z,101019.77
2017-08-06T04:16:48.411Z,101021.67
2017-08-06T04:19:19.592Z,101026.34
2017-08-06T04:21:48.933Z,101032.75
2017-08-06T04:24:21.634Z,101029.73
2017-08-06T04:26:51.762Z,101030.17
2017-08-06T04:29:21.060Z,101032.60
2017-08-06T04:31:51.540Z,101038.77
2017-08-06T04:34:20.861Z,101025.61
2017-08-06T04:36:50.597Z,101028.67
2017-08-06T04:39:20.633Z,101030.74
2017-08-06T04:41:49.727Z,101036.45
2017-08-06T04:44:18.993Z,101041.03
2017-08-06T04:46:48.353Z,101048.59
2017-08-06T04:49:19.339Z,101048.59
2017-08-06T04:51:49.384Z,101053.09
2017-08-06T04:54:18.639Z,101049.70
2017-08-06T04:56:47.923Z,101048.98
2017-08-06T04:59:19.907Z,101056.55
2017-08-06T05:01:49.431Z,101062.23
2017-08-06T05:04:20.694Z,101061.91
2017-08-06T05:06:49.966Z,101057.81
2017-08-06T05:09:19.243Z,101062.98
2017-08-06T05:11:48.540Z,101058.86
2017-08-06T05:14:20.545Z,101063.19
2017-08-06T05:16:49.824Z,101062.33
2017-08-06T05:19:19.167Z,101070.75
2017-08-06T05:21:48.452Z,101063.04
2017-08-06T05:24:20.647Z,101075.90
2017-08-06T05:26:50.060Z,101079.34
2017-08-06T05:29:19.319Z,101085.86
2017-08-06T05:31:50.962Z,101091.33
2017-08-06T05:34:20.282Z,101083.91
2017-08-06T05:36:49.656Z,101090.19
2017-08-06T05:39:18.862Z,101096.06
2017-08-06T05:41:50.573Z,101095.67
2017-08-06T05:44:19.853Z,101097.91
2017-08-06T05:46:49.237Z,101105.22
2017-08-06T05:49:20.189Z,101099.12
2017-08-06T05:51:49.467Z,101107.70
2017-08-06T05:54:21.346Z,101105.36
2017-08-06T05:56:53.308Z,101105.33
2017-08-06T05:59:22.675Z,101114.31
2017-08-06T06:01:53.099Z,101119.31
2017-08-06T06:04:22.381Z,101120.91
2017-08-06T06:06:51.633Z,101118.87
2017-08-06T06:09:20.932Z,101126.31
2017-08-06T06:11:51.715Z,101128.34
2017-08-06T06:14:20.950Z,101132.24
2017-08-06T06:16:50.092Z,101134.70
2017-08-06T06:19:19.300Z,101139.28
2017-08-06T06:21:49.133Z,101143.31
2017-08-06T06:24:19.970Z,101147.84
2017-08-06T06:26:49.283Z,101160.96
2017-08-06T06:29:18.605Z,101160.38
2017-08-06T06:31:50.406Z,101167.19
2017-08-06T06:34:19.738Z,101167.66
2017-08-06T06:36:48.961Z,101159.83
2017-08-06T06:39:19.941Z,101159.92
2017-08-06T06:41:49.781Z,101167.12
2017-08-06T06:44:19.087Z,101168.69
2017-08-06T06:46:50.726Z,101172.40
2017-08-06T06:49:21.173Z,101175.33
2017-08-06T06:51:50.433Z,101175.36
2017-08-06T06:54:21.656Z,101177.34
2017-08-06T06:56:50.867Z,101178.44
2017-08-06T06:59:22.101Z,101187.92
2017-08-06T07:01:53.478Z,101178.06
2017-08-06T07:04:22.748Z,101193.09
2017-08-06T07:06:52.091Z,101188.00
2017-08-06T07:09:21.354Z,101191.59
2017-08-06T07:11:50.598Z,101189.67
2017-08-06T07:14:22.516Z,101196.72
2017-08-06T07:16:53.106Z,101201.23
2017-08-06T07:19:22.744Z,101195.67
2017-08-06T07:21:51.989Z,101199.86
2017-08-06T07:24:23.178Z,101206.86
2017-08-06T07:26:52.364Z,101208.33
2017-08-06T07:29:21.689Z,101203.20
2017-08-06T07:31:50.931Z,101210.61
2017-08-06T07:34:22.038Z,101211.89
2017-08-06T07:36:51.297Z,101213.75
2017-08-06T07:39:20.549Z,101218.36
2017-08-06T07:41:49.863Z,101218.48
2017-08-06T07:44:19.093Z,101216.05
2017-08-06T07:46:48.384Z,101221.60
2017-08-06T07:49:19.675Z,101229.05
2017-08-06T07:51:49.152Z,101227.32
2017-08-06T07:54:18.437Z,101231.72
2017-08-06T07:59:25.899Z,101228.83
2017-08-06T08:01:55.073Z,101237.80
2017-08-06T08:04:24.184Z,101235.97
2017-08-06T08:06:53.252Z,101233.89
2017-08-06T08:09:22.378Z,101232.90
2017-08-06T08:11:52.987Z,101228.27
2017-08-06T08:14:23.670Z,101229.28
2017-08-06T08:16:52.774Z,101230.07
2017-08-06T08:19:22.106Z,101228.09
2017-08-06T08:21:51.514Z,101220.72
2017-08-06T08:24:21.961Z,101232.89
2017-08-06T08:26:54.155Z,101224.72
2017-08-06T08:29:24.705Z,101227.38
2017-08-06T08:31:55.141Z,101233.17
2017-08-06T08:34:25.969Z,101233.37
2017-08-06T08:36:55.190Z,101232.05
2017-08-06T08:39:25.772Z,101243.47
2017-08-06T08:41:57.603Z,101238.80
2017-08-06T08:44:26.775Z,101243.06
2017-08-06T08:46:55.889Z,101238.29
2017-08-06T08:49:25.136Z,101237.64
2017-08-06T08:51:54.417Z,101241.19
2017-08-06T08:54:23.696Z,101246.13
2017-08-06T08:56:54.246Z,101245.05
2017-08-06T08:59:23.859Z,101231.70
2017-08-06T09:01:53.134Z,101244.67
2017-08-06T09:04:22.908Z,101241.66
2017-08-06T09:06:53.898Z,101239.12
2017-08-06T09:09:23.125Z,101242.88
2017-08-06T09:11:52.362Z,101248.36
2017-08-06T09:14:21.693Z,101250.39
2017-08-06T09:16:50.988Z,101244.56
2017-08-06T09:19:20.502Z,101246.22
2017-08-06T09:21:50.235Z,101250.21
2017-08-06T09:24:19.556Z,101254.50
2017-08-06T09:26:48.634Z,101252.62
2017-08-06T09:29:17.708Z,101246.09
2017-08-06T09:31:46.778Z,101254.88
2017-08-06T09:34:16.160Z,101249.12
2017-08-06T09:36:45.206Z,101249.14
2017-08-06T09:39:14.600Z,101251.94
2017-08-06T09:41:43.697Z,101256.02
2017-08-06T09:44:14.289Z,101249.53
2017-08-06T09:46:43.342Z,101253.87
2017-08-06T09:49:12.404Z,101258.16
2017-08-06T09:51:41.464Z,101253.95
2017-08-06T09:54:10.731Z,101257.30
2017-08-06T09:56:40.548Z,101246.98
2017-08-06T09:59:10.399Z,101253.42
2017-08-06T10:01:39.451Z,101247.33
2017-08-06T10:04:09.291Z,101248.48
2017-08-06T10:06:38.361Z,101249.20
2017-08-06T10:09:07.412Z,101236.95
2017-08-06T10:11:36.486Z,101235.58
2017-08-06T10:14:05.822Z,101236.42
2017-08-06T10:16:35.261Z,101233.27
2017-08-06T10:19:05.094Z,101234.46
2017-08-06T10:21:34.909Z,101233.25
2017-08-06T10:24:04.001Z,101234.20
2017-08-06T10:26:33.032Z,101232.95
2017-08-06T10:29:02.095Z,101232.36
2017-08-06T10:31:31.191Z,101227.11
2017-08-06T10:34:00.262Z,101223.49
2017-08-06T10:36:29.374Z,101220.75
2017-08-06T10:38:58.468Z,101214.52
2017-08-06T10:41:27.563Z,101212.63
2017-08-06T10:43:56.673Z,101215.23
2017-08-06T10:46:25.922Z,101215.40
2017-08-06T10:48:55.010Z,101215.22
2017-08-06T10:51:24.056Z,101211.20
2017-08-06T10:53:53.155Z,101209.63
2017-08-06T10:56:22.271Z,101206.59
2017-08-06T10:58:51.533Z,101209.98
2017-08-06T11:01:20.613Z,101208.86
2017-08-06T11:03:49.787Z,101205.12
2017-08-06T11:06:18.851Z,101208.18
2017-08-06T11:08:48.292Z,101213.89
2017-08-06T11:11:17.349Z,101210.84
2017-08-06T11:13:46.448Z,101205.02
2017-08-06T11:16:15.524Z,101203.59
2017-08-06T11:18:44.593Z,101198.88
2017-08-06T11:21:13.659Z,101202.23
2017-08-06T11:23:42.727Z,101195.28
2017-08-06T11:26:11.807Z,101196.97
2017-08-06T11:28:40.866Z,101195.00
2017-08-06T11:31:09.952Z,101189.13
2017-08-06T11:33:39.001Z,101193.69
2017-08-06T11:36:08.108Z,101197.20
2017-08-06T11:38:37.420Z,101193.38
2017-08-06T11:41:06.516Z,101191.79
2017-08-06T11:43:35.592Z,101184.16
2017-08-06T11:46:04.654Z,101185.41
2017-08-06T11:48:34.489Z,101186.98
2017-08-06T11:51:03.573Z,101183.34
2017-08-06T11:53:33.685Z,101170.91
2017-08-06T11:56:02.705Z,101177.99
2017-08-06T11:58:31.780Z,101179.20
2017-08-06T12:01:00.924Z,101182.59
2017-08-06T12:03:29.984Z,101179.52
2017-08-06T12:05:59.072Z,101183.41
2017-08-06T12:08:28.367Z,101170.09
2017-08-06T12:10:57.431Z,101168.02
2017-08-06T12:13:26.493Z,101173.45
2017-08-06T12:15:55.564Z,101179.16
2017-08-06T12:18:24.643Z,101179.27
2017-08-06T12:20:53.684Z,101177.28
2017-08-06T12:23:22.748Z,101174.46
2017-08-06T12:25:51.810Z,101178.87
2017-08-06T12:28:20.868Z,101172.08
2017-08-06T12:30:49.942Z,101176.63
2017-08-06T12:33:18.982Z,101172.09
2017-08-06T12:35:48.081Z,101173.50
2017-08-06T12:38:17.171Z,101172.13
2017-08-06T12:40:46.208Z,101180.18
2017-08-06T12:43:15.274Z,101180.93
2017-08-06T12:45:44.328Z,101180.06
2017-08-06T12:48:13.413Z,101186.34
2017-08-06T12:50:42.471Z,101181.02
2017-08-06T12:53:11.868Z,101185.76
2017-08-06T12:55:40.931Z,101181.66
2017-08-06T12:58:10.012Z,101181.55
2017-08-06T13:00:39.078Z,101180.09
2017-08-06T13:03:08.152Z,101189.45
2017-08-06T13:05:37.609Z,101183.56
2017-08-06T13:08:07.418Z,101181.34
2017-08-06T13:10:36.508Z,101182.95
2017-08-06T13:13:05.585Z,101181.47
2017-08-06T13:15:34.635Z,101185.34
2017-08-06T13:18:03.929Z,101185.93
2017-08-06T13:20:33.007Z,101183.36
2017-08-06T13:23:02.084Z,101187.80
2017-08-06T13:25:31.143Z,101187.38
2017-08-06T13:28:00.968Z,101186.29
2017-08-06T13:30:30.809Z,101179.91
2017-08-06T13:32:59.897Z,101178.06
2017-08-06T13:35:28.956Z,101180.02
2017-08-06T13:37:58.785Z,101171.00
2017-08-06T13:40:27.862Z,101175.44
2017-08-06T13:42:57.735Z,101173.27
2017-08-06T13:45:26.772Z,101165.96
2017-08-06T13:47:56.626Z,101169.96
2017-08-06T13:50:25.731Z,101168.96
2017-08-06T13:52:54.876Z,101169.56
2017-08-06T13:55:24.704Z,101172.28
2017-08-06T13:57:53.755Z,101166.47
2017-08-06T14:00:23.181Z,101167.64
2017-08-06T14:02:52.224Z,101163.50
2017-08-06T14:05:21.290Z,101161.88
2017-08-06T14:07:50.388Z,101168.60
2017-08-06T14:10:19.459Z,101157.16
2017-08-06T14:12:49.325Z,101162.00
2017-08-06T14:15:18.392Z,101165.86
2017-08-06T14:17:47.462Z,101173.31
2017-08-06T14:20:17.326Z,101168.59
2017-08-06T14:22:47.079Z,101165.57
2017-08-06T14:25:16.449Z,101169.02
2017-08-06T14:27:45.516Z,101163.22
2017-08-06T14:30:14.627Z,101161.09
2017-08-06T14:32:43.681Z,101159.86
2017-08-06T14:35:13.548Z,101164.39
2017-08-06T14:37:42.631Z,101168.87
2017-08-06T14:40:11.756Z,101164.20
2017-08-06T14:42:40.839Z,101160.31
2017-08-06T14:45:09.955Z,101161.41
2017-08-06T14:47:39.005Z,101164.17
2017-08-06T14:50:08.120Z,101162.20
2017-08-06T14:52:38.264Z,101165.61
2017-08-06T14:55:07.407Z,101157.84
2017-08-06T14:57:36.481Z,101149.47
2017-08-06T15:00:06.338Z,101155.67
2017-08-06T15:02:35.432Z,101155.25
2017-08-06T15:05:04.489Z,101150.30
2017-08-06T15:07:34.353Z,101145.95
2017-08-06T15:10:03.425Z,101148.20
2017-08-06T15:12:32.501Z,101149.02
2017-08-06T15:15:02.373Z,101146.11
2017-08-06T15:17:31.424Z,101156.59
2017-08-06T15:20:00.529Z,101149.01
2017-08-06T15:22:29.578Z,101152.91
2017-08-06T15:24:59.423Z,101151.92
2017-08-06T15:27:28.488Z,101154.30
2017-08-06T15:29:58.336Z,101156.12
2017-08-06T15:32:28.155Z,101159.44
2017-08-06T15:34:57.216Z,101159.57
2017-08-06T15:37:27.052Z,101150.39
2017-08-06T15:39:56.136Z,101148.16
2017-08-06T15:42:25.173Z,101157.33
2017-08-06T15:44:54.250Z,101153.95
2017-08-06T15:47:23.337Z,101164.72
2017-08-06T15:49:52.506Z,101158.59
2017-08-06T15:52:22.317Z,101162.59
2017-08-06T15:54:52.183Z,101164.12
2017-08-06T15:57:21.245Z,101160.88
2017-08-06T15:59:50.314Z,101157.94
2017-08-06T16:02:19.969Z,101159.57
2017-08-06T16:04:49.006Z,101155.74
2017-08-06T16:07:18.089Z,101154.42
2017-08-06T16:09:47.864Z,101156.47
2017-08-06T16:12:17.204Z,101147.19
2017-08-06T16:14:46.254Z,101142.29
2017-08-06T16:17:15.316Z,101143.77
2017-08-06T16:19:45.154Z,101148.53
2017-08-06T16:22:14.328Z,101139.91
2017-08-06T16:24:43.364Z,101137.67
2017-08-06T16:27:12.445Z,101138.22
2017-08-06T16:29:41.534Z,101137.61
2017-08-06T16:32:11.361Z,101133.86
2017-08-06T16:34:40.440Z,101135.63
2017-08-06T16:37:10.340Z,101135.75
2017-08-06T16:39:39.362Z,101141.08
2017-08-06T16:42:08.432Z,101140.59
2017-08-06T16:44:38.267Z,101142.63
2017-08-06T16:47:07.340Z,101140.65
2017-08-06T16:49:37.187Z,101143.80
2017-08-06T16:52:06.310Z,101139.08
2017-08-06T16:54:36.156Z,101131.33
2017-08-06T16:57:06.000Z,101126.97
2017-08-06T16:59:35.060Z,101130.41
2017-08-06T17:02:04.903Z,101126.50
2017-08-06T17:04:33.946Z,101126.73
2017-08-06T17:07:03.236Z,101127.81
2017-08-06T17:09:33.151Z,101129.33
2017-08-06T17:12:02.240Z,101124.48
2017-08-06T17:14:31.294Z,101126.73
2017-08-06T17:17:00.351Z,101121.69
2017-08-06T17:19:29.420Z,101127.84
2017-08-06T17:21:58.475Z,101122.16
2017-08-06T17:24:28.301Z,101120.84
2017-08-06T17:26:57.367Z,101123.11
2017-08-06T17:29:26.420Z,101119.21
2017-08-06T17:31:55.476Z,101118.96
2017-08-06T17:34:25.298Z,101116.12
2017-08-06T17:36:54.405Z,101118.33
2017-08-06T17:39:23.453Z,101122.77
2017-08-06T17:41:53.307Z,101116.70
2017-08-06T17:44:22.385Z,101125.39
2017-08-06T17:46:52.215Z,101118.23
2017-08-06T17:49:21.269Z,101123.81
2017-08-06T17:51:51.132Z,101117.15
2017-08-06T17:54:20.240Z,101117.28
2017-08-06T17:56:49.341Z,101125.52
2017-08-06T17:59:18.423Z,101122.98
2017-08-06T18:01:47.477Z,101121.11
2017-08-06T18:04:17.332Z,101119.84
2017-08-06T18:06:46.396Z,101119.42
2017-08-06T18:09:16.231Z,101116.93
2017-08-06T18:11:46.252Z,101112.19
2017-08-06T18:14:15.364Z,101119.11
2017-08-06T18:16:44.455Z,101116.99
2017-08-06T18:19:14.341Z,101116.90
2017-08-06T18:21:43.378Z,101122.84
2017-08-06T18:24:12.474Z,101122.58
2017-08-06T18:26:41.524Z,101118.03
2017-08-06T18:29:10.599Z,101126.54
2017-08-06T18:31:40.817Z,101127.95
2017-08-06T18:34:09.901Z,101127.51
2017-08-06T18:36:38.965Z,101121.00
2017-08-06T18:39:08.359Z,101129.09
2017-08-06T18:41:38.369Z,101134.38
2017-08-06T18:44:07.480Z,101131.14
2017-08-06T18:46:36.570Z,101131.77
2017-08-06T18:49:05.617Z,101126.98
2017-08-06T18:51:34.751Z,101130.78
2017-08-06T18:54:03.865Z,101132.90
2017-08-06T18:56:32.960Z,101129.31
2017-08-06T18:59:02.023Z,101125.08
2017-08-06T19:01:32.427Z,101126.95
2017-08-06T19:04:01.788Z,101129.83
2017-08-06T19:06:30.849Z,101130.68
2017-08-06T19:08:59.937Z,101130.65
2017-08-06T19:11:29.853Z,101129.05
2017-08-06T19:14:01.025Z,101130.19
2017-08-06T19:16:30.468Z,101129.07
2017-08-06T19:19:00.520Z,101134.42
2017-08-06T19:21:30.450Z,101135.32
2017-08-06T19:23:59.508Z,101134.24
2017-08-06T19:26:29.388Z,101141.53
2017-08-06T19:28:58.503Z,101144.34
2017-08-06T19:31:27.732Z,101151.84
2017-08-06T19:33:57.024Z,101156.22
2017-08-06T19:36:26.117Z,101161.70
2017-08-06T19:38:56.649Z,101160.25
2017-08-06T19:41:26.551Z,101155.78
2017-08-06T19:43:58.205Z,101159.19
2017-08-06T19:46:27.431Z,101163.13
2017-08-06T19:48:56.664Z,101164.89
2017-08-06T19:51:27.566Z,101161.88
2017-08-06T19:53:56.696Z,101160.44
2017-08-06T19:56:25.864Z,101158.17
2017-08-06T19:58:55.685Z,101163.42
2017-08-06T20:01:24.811Z,101158.67
2017-08-06T20:03:53.964Z,101158.05
2017-08-06T20:06:23.839Z,101156.88
2017-08-06T20:08:52.907Z,101163.38
2017-08-06T20:11:21.973Z,101165.73
2017-08-06T20:13:51.609Z,101159.33
2017-08-06T20:16:21.062Z,101164.78
2017-08-06T20:18:50.084Z,101159.44
2017-08-06T20:21:19.927Z,101154.52
2017-08-06T20:23:48.980Z,101147.59
2017-08-06T20:26:18.144Z,101151.22
2017-08-06T20:28:47.938Z,101156.64
2017-08-06T20:31:17.009Z,101160.27
2017-08-06T20:33:46.076Z,101157.17
2017-08-06T20:36:15.893Z,101159.98
2017-08-06T20:38:44.982Z,101160.15
2017-08-06T20:41:14.827Z,101154.48
2017-08-06T20:43:43.863Z,101154.38
2017-08-06T20:46:13.251Z,101154.20
2017-08-06T20:48:42.309Z,101159.34
2017-08-06T20:51:12.085Z,101151.33
2017-08-06T20:53:42.040Z,101146.00
2017-08-06T20:56:11.099Z,101148.48
2017-08-06T20:58:40.942Z,101150.03
2017-08-06T21:01:10.024Z,101145.56
2017-08-06T21:03:39.095Z,101144.94
2017-08-06T21:06:08.165Z,101150.04
2017-08-06T21:08:37.448Z,101143.74
2017-08-06T21:11:06.524Z,101153.28
2017-08-06T21:13:35.589Z,101140.34
2017-08-06T21:16:04.637Z,101141.66
2017-08-06T21:18:33.692Z,101136.92
2017-08-06T21:21:02.832Z,101137.84
2017-08-06T21:23:31.892Z,101141.58
2017-08-06T21:26:00.964Z,101138.25
2017-08-06T21:28:30.776Z,101134.58
2017-08-06T21:31:03.635Z,101129.66
2017-08-06T21:33:33.497Z,101125.63
2017-08-06T21:36:02.553Z,101131.30
2017-08-06T21:38:31.623Z,101131.66
2017-08-06T21:41:00.688Z,101138.61
2017-08-06T21:43:29.780Z,101132.22
2017-08-06T21:45:59.128Z,101136.60
2017-08-06T21:48:28.182Z,101131.41
2017-08-06T21:50:57.252Z,101136.50
2017-08-06T21:53:27.070Z,101139.06
2017-08-06T21:55:56.464Z,101134.95
2017-08-06T21:58:25.554Z,101142.11
2017-08-06T22:00:54.648Z,101132.98
2017-08-06T22:03:23.704Z,101138.88
2017-08-06T22:05:52.764Z,101136.75
2017-08-06T22:08:21.859Z,101137.34
2017-08-06T22:10:51.749Z,101142.59
2017-08-06T22:13:21.576Z,101140.93
2017-08-06T22:15:51.021Z,101139.82
2017-08-06T22:18:20.093Z,101136.34
2017-08-06T22:20:49.132Z,101140.83
2017-08-06T22:23:18.224Z,101140.55
2017-08-06T22:25:47.282Z,101141.09
2017-08-06T22:28:16.366Z,101143.77
2017-08-06T22:30:45.443Z,101134.78
2017-08-06T22:33:15.272Z,101136.58
2017-08-06T22:35:44.344Z,101134.46
2017-08-06T22:38:14.173Z,101137.63
2017-08-06T22:40:43.228Z,101134.77
2017-08-06T22:43:12.332Z,101137.97
2017-08-06T22:45:41.403Z,101137.53
2017-08-06T22:48:10.492Z,101137.48
2017-08-06T22:50:39.552Z,101133.56
2017-08-06T22:53:08.626Z,101136.27
2017-08-06T22:55:37.684Z,101137.42
2017-08-06T22:58:06.754Z,101141.87
2017-08-06T23:00:35.866Z,101137.55
2017-08-06T23:03:04.928Z,101138.13
2017-08-06T23:05:34.185Z,101134.98
2017-08-06T23:08:03.237Z,101134.94
2017-08-06T23:10:32.325Z,101133.51
2017-08-06T23:13:01.393Z,101136.76
2017-08-06T23:15:31.315Z,101123.08
2017-08-06T23:18:00.384Z,101120.67
2017-08-06T23:20:29.425Z,101125.36
2017-08-06T23:22:58.518Z,101130.38
2017-08-06T23:25:27.573Z,101126.68
2017-08-06T23:27:56.656Z,101123.55
2017-08-06T23:30:25.719Z,101119.95
2017-08-06T23:32:54.803Z,101120.06
2017-08-06T23:35:23.844Z,101110.66
2017-08-06T23:37:52.926Z,101115.34
2017-08-06T23:40:22.008Z,101105.77
2017-08-06T23:42:51.067Z,101111.88
2017-08-06T23:45:20.484Z,101109.22
2017-08-06T23:47:49.520Z,101102.31
2017-08-06T23:50:18.580Z,101105.89
2017-08-06T23:52:47.669Z,101108.31
2017-08-06T23:55:16.715Z,101095.02
2017-08-06T23:57:45.836Z,101100.03
